sensor_id;sensor_type;location;lat;lon;timestamp;temperature;humidity
11538;DHT22;50159;49.426;11.182;2023-03-01T00:01:38;-1.40;99.90
11538;DHT22;50159;49.426;11.182;2023-03-01T00:04:05;-1.40;99.90
11538;DHT22;50159;49.426;11.182;2023-03-01T00:06:31;-1.40;99.90
11538;DHT22;50159;49.426;11.182;2023-03-01T00:08:59;-1.40;99.90
11538;DHT22;50159;49.426;11.182;2023-03-01T00:11:28;-1.40;99.90
11538;DHT22;50159;49.426;11.182;2023-03-01T00:13:58;-1.40;99.90
11538;DHT22;50159;49.426;11.182;2023-03-01T00:16:32;-1.40;99.90
11538;DHT22;50159;49.426;11.182;2023-03-01T00:19:12;-1.30;99.90
11538;DHT22;50159;49.426;11.182;2023-03-01T00:21:41;-1.40;99.90
11538;DHT22;50159;49.426;11.182;2023-03-01T00:24:08;-1.40;99.90
11538;DHT22;50159;49.426;11.182;2023-03-01T00:26:37;-1.30;99.90
11538;DHT22;50159;49.426;11.182;2023-03-01T00:29:04;-1.30;99.90
11538;DHT22;50159;49.426;11.182;2023-03-01T00:31:32;-1.40;99.90
11538;DHT22;50159;49.426;11.182;2023-03-01T00:34:03;-1.30;99.90
11538;DHT22;50159;49.426;11.182;2023-03-01T00:36:34;-1.40;99.80
11538;DHT22;50159;49.426;11.182;2023-03-01T00:39:04;-1.40;99.80
11538;DHT22;50159;49.426;11.182;2023-03-01T00:41:34;-1.40;99.80
11538;DHT22;50159;49.426;11.182;2023-03-01T00:44:01;-1.40;99.80
11538;DHT22;50159;49.426;11.182;2023-03-01T00:46:29;-1.40;99.80
11538;DHT22;50159;49.426;11.182;2023-03-01T00:48:57;-1.40;99.80
11538;DHT22;50159;49.426;11.182;2023-03-01T00:51:27;-1.50;99.80
11538;DHT22;50159;49.426;11.182;2023-03-01T00:53:57;-1.50;99.90
11538;DHT22;50159;49.426;11.182;2023-03-01T00:56:25;-1.50;99.80
11538;DHT22;50159;49.426;11.182;2023-03-01T00:58:52;-1.50;99.80
11538;DHT22;50159;49.426;11.182;2023-03-01T01:01:22;-1.50;99.90
11538;DHT22;50159;49.426;11.182;2023-03-01T01:03:53;-1.50;99.90
11538;DHT22;50159;49.426;11.182;2023-03-01T01:06:30;-1.50;99.90
11538;DHT22;50159;49.426;11.182;2023-03-01T01:09:00;-1.50;99.90
11538;DHT22;50159;49.426;11.182;2023-03-01T01:11:28;-1.50;99.90
11538;DHT22;50159;49.426;11.182;2023-03-01T01:13:57;-1.50;99.90
11538;DHT22;50159;49.426;11.182;2023-03-01T01:16:27;-1.50;99.90
11538;DHT22;50159;49.426;11.182;2023-03-01T01:18:56;-1.50;99.90
11538;DHT22;50159;49.426;11.182;2023-03-01T01:21:24;-1.50;99.90
11538;DHT22;50159;49.426;11.182;2023-03-01T01:23:52;-1.50;99.90
11538;DHT22;50159;49.426;11.182;2023-03-01T01:26:22;-1.50;99.90
11538;DHT22;50159;49.426;11.182;2023-03-01T01:28:52;-1.50;99.90
11538;DHT22;50159;49.426;11.182;2023-03-01T01:31:19;-1.60;99.90
11538;DHT22;50159;49.426;11.182;2023-03-01T01:33:51;-1.60;99.90
11538;DHT22;50159;49.426;11.182;2023-03-01T01:36:19;-1.60;99.90
11538;DHT22;50159;49.426;11.182;2023-03-01T01:38:45;-1.60;99.90
11538;DHT22;50159;49.426;11.182;2023-03-01T01:41:13;-1.60;99.90
11538;DHT22;50159;49.426;11.182;2023-03-01T01:47:02;-1.60;99.90
11538;DHT22;50159;49.426;11.182;2023-03-01T01:49:49;-1.60;99.90
11538;DHT22;50159;49.426;11.182;2023-03-01T01:52:26;-1.60;99.90
11538;DHT22;50159;49.426;11.182;2023-03-01T01:57:34;-1.60;99.90
11538;DHT22;50159;49.426;11.182;2023-03-01T02:00:12;-1.60;99.90
11538;DHT22;50159;49.426;11.182;2023-03-01T02:02:43;-1.60;99.90
11538;DHT22;50159;49.426;11.182;2023-03-01T02:07:53;-1.60;99.90
11538;DHT22;50159;49.426;11.182;2023-03-01T02:10:22;-1.70;99.90
11538;DHT22;50159;49.426;11.182;2023-03-01T02:12:51;-1.70;99.90
11538;DHT22;50159;49.426;11.182;2023-03-01T02:15:18;-1.70;99.90
11538;DHT22;50159;49.426;11.182;2023-03-01T02:17:45;-1.70;99.90
11538;DHT22;50159;49.426;11.182;2023-03-01T02:23:00;-1.70;99.90
11538;DHT22;50159;49.426;11.182;2023-03-01T02:25:46;-1.70;99.90
11538;DHT22;50159;49.426;11.182;2023-03-01T02:28:30;-1.60;99.90
11538;DHT22;50159;49.426;11.182;2023-03-01T02:31:01;-1.60;99.90
11538;DHT22;50159;49.426;11.182;2023-03-01T02:33:49;-1.60;99.90
11538;DHT22;50159;49.426;11.182;2023-03-01T02:36:23;-1.60;99.90
11538;DHT22;50159;49.426;11.182;2023-03-01T02:38:58;-1.60;99.90
11538;DHT22;50159;49.426;11.182;2023-03-01T02:41:32;-1.60;99.90
11538;DHT22;50159;49.426;11.182;2023-03-01T02:44:04;-1.60;99.90
11538;DHT22;50159;49.426;11.182;2023-03-01T02:46:32;-1.60;99.90
11538;DHT22;50159;49.426;11.182;2023-03-01T02:48:59;-1.60;99.90
11538;DHT22;50159;49.426;11.182;2023-03-01T02:51:47;-1.60;99.90
11538;DHT22;50159;49.426;11.182;2023-03-01T02:54:25;-1.70;99.90
11538;DHT22;50159;49.426;11.182;2023-03-01T02:57:00;-1.70;99.90
11538;DHT22;50159;49.426;11.182;2023-03-01T02:59:32;-1.70;99.90
11538;DHT22;50159;49.426;11.182;2023-03-01T03:02:07;-1.70;99.90
11538;DHT22;50159;49.426;11.182;2023-03-01T03:04:47;-1.70;99.90
11538;DHT22;50159;49.426;11.182;2023-03-01T03:07:13;-1.80;99.90
11538;DHT22;50159;49.426;11.182;2023-03-01T03:09:40;-1.70;99.90
11538;DHT22;50159;49.426;11.182;2023-03-01T03:12:07;-1.80;99.90
11538;DHT22;50159;49.426;11.182;2023-03-01T03:14:34;-1.80;99.90
11538;DHT22;50159;49.426;11.182;2023-03-01T03:17:01;-1.80;99.90
11538;DHT22;50159;49.426;11.182;2023-03-01T03:19:32;-1.90;99.90
11538;DHT22;50159;49.426;11.182;2023-03-01T03:21:59;-1.90;99.90
11538;DHT22;50159;49.426;11.182;2023-03-01T03:24:26;-1.90;99.90
11538;DHT22;50159;49.426;11.182;2023-03-01T03:26:55;-2.00;99.90
11538;DHT22;50159;49.426;11.182;2023-03-01T03:29:21;-2.10;99.90
11538;DHT22;50159;49.426;11.182;2023-03-01T03:31:48;-2.10;99.90
11538;DHT22;50159;49.426;11.182;2023-03-01T03:34:15;-2.20;99.90
11538;DHT22;50159;49.426;11.182;2023-03-01T03:36:44;-2.20;99.90
11538;DHT22;50159;49.426;11.182;2023-03-01T03:39:11;-2.30;99.90
11538;DHT22;50159;49.426;11.182;2023-03-01T03:41:38;-2.30;99.90
11538;DHT22;50159;49.426;11.182;2023-03-01T03:44:04;-2.30;99.90
11538;DHT22;50159;49.426;11.182;2023-03-01T03:46:31;-2.30;99.90
11538;DHT22;50159;49.426;11.182;2023-03-01T03:48:59;-2.30;99.90
11538;DHT22;50159;49.426;11.182;2023-03-01T03:51:26;-2.30;99.90
11538;DHT22;50159;49.426;11.182;2023-03-01T03:53:52;-2.30;99.90
11538;DHT22;50159;49.426;11.182;2023-03-01T03:56:19;-2.30;99.90
11538;DHT22;50159;49.426;11.182;2023-03-01T03:58:46;-2.30;99.90
11538;DHT22;50159;49.426;11.182;2023-03-01T04:01:13;-2.30;99.90
11538;DHT22;50159;49.426;11.182;2023-03-01T04:03:39;-2.30;99.90
11538;DHT22;50159;49.426;11.182;2023-03-01T04:06:08;-2.30;99.90
11538;DHT22;50159;49.426;11.182;2023-03-01T04:08:35;-2.30;99.90
11538;DHT22;50159;49.426;11.182;2023-03-01T04:11:03;-2.30;99.90
11538;DHT22;50159;49.426;11.182;2023-03-01T04:13:52;-2.30;99.90
11538;DHT22;50159;49.426;11.182;2023-03-01T04:16:21;-2.30;99.90
11538;DHT22;50159;49.426;11.182;2023-03-01T04:18:49;-2.30;99.90
11538;DHT22;50159;49.426;11.182;2023-03-01T04:21:16;-2.30;99.90
11538;DHT22;50159;49.426;11.182;2023-03-01T04:23:43;-2.40;99.90
11538;DHT22;50159;49.426;11.182;2023-03-01T04:26:09;-2.40;99.90
11538;DHT22;50159;49.426;11.182;2023-03-01T04:28:39;-2.40;99.90
11538;DHT22;50159;49.426;11.182;2023-03-01T04:31:14;-2.40;99.90
11538;DHT22;50159;49.426;11.182;2023-03-01T04:33:54;-2.40;99.90
11538;DHT22;50159;49.426;11.182;2023-03-01T04:36:26;-2.50;99.90
11538;DHT22;50159;49.426;11.182;2023-03-01T04:38:55;-2.50;99.90
11538;DHT22;50159;49.426;11.182;2023-03-01T04:41:23;-2.50;99.90
11538;DHT22;50159;49.426;11.182;2023-03-01T04:43:52;-2.60;99.90
11538;DHT22;50159;49.426;11.182;2023-03-01T04:46:20;-2.60;99.90
11538;DHT22;50159;49.426;11.182;2023-03-01T04:48:47;-2.60;99.90
11538;DHT22;50159;49.426;11.182;2023-03-01T04:51:14;-2.60;99.90
11538;DHT22;50159;49.426;11.182;2023-03-01T04:53:42;-2.60;99.90
11538;DHT22;50159;49.426;11.182;2023-03-01T04:56:10;-2.60;99.90
11538;DHT22;50159;49.426;11.182;2023-03-01T04:58:37;-2.60;99.90
11538;DHT22;50159;49.426;11.182;2023-03-01T05:01:15;-2.50;99.90
11538;DHT22;50159;49.426;11.182;2023-03-01T05:03:46;-2.60;99.90
11538;DHT22;50159;49.426;11.182;2023-03-01T05:06:16;-2.50;99.90
11538;DHT22;50159;49.426;11.182;2023-03-01T05:08:44;-2.50;99.90
11538;DHT22;50159;49.426;11.182;2023-03-01T05:11:11;-2.60;99.90
11538;DHT22;50159;49.426;11.182;2023-03-01T05:13:39;-2.50;99.90
11538;DHT22;50159;49.426;11.182;2023-03-01T05:16:07;-2.60;99.90
11538;DHT22;50159;49.426;11.182;2023-03-01T05:18:39;-2.60;99.90
11538;DHT22;50159;49.426;11.182;2023-03-01T05:21:09;-2.50;99.90
11538;DHT22;50159;49.426;11.182;2023-03-01T05:23:38;-2.60;99.90
11538;DHT22;50159;49.426;11.182;2023-03-01T05:26:06;-2.60;99.90
11538;DHT22;50159;49.426;11.182;2023-03-01T05:28:48;-2.60;99.90
11538;DHT22;50159;49.426;11.182;2023-03-01T05:31:14;-2.60;99.90
11538;DHT22;50159;49.426;11.182;2023-03-01T05:33:42;-2.60;99.90
11538;DHT22;50159;49.426;11.182;2023-03-01T05:36:10;-2.60;99.90
11538;DHT22;50159;49.426;11.182;2023-03-01T05:38:37;-2.70;99.90
11538;DHT22;50159;49.426;11.182;2023-03-01T05:41:04;-2.70;99.90
11538;DHT22;50159;49.426;11.182;2023-03-01T05:43:31;-2.70;99.90
11538;DHT22;50159;49.426;11.182;2023-03-01T05:46:01;-2.70;99.90
11538;DHT22;50159;49.426;11.182;2023-03-01T05:48:28;-2.70;99.90
11538;DHT22;50159;49.426;11.182;2023-03-01T05:50:54;-2.80;99.90
11538;DHT22;50159;49.426;11.182;2023-03-01T05:53:21;-2.80;99.90
11538;DHT22;50159;49.426;11.182;2023-03-01T05:55:48;-2.80;99.90
11538;DHT22;50159;49.426;11.182;2023-03-01T05:58:18;-2.80;99.90
11538;DHT22;50159;49.426;11.182;2023-03-01T06:00:47;-2.80;99.90
11538;DHT22;50159;49.426;11.182;2023-03-01T06:03:16;-2.80;99.90
11538;DHT22;50159;49.426;11.182;2023-03-01T06:05:44;-2.80;99.90
11538;DHT22;50159;49.426;11.182;2023-03-01T06:08:12;-2.80;99.90
11538;DHT22;50159;49.426;11.182;2023-03-01T06:10:39;-2.80;99.90
11538;DHT22;50159;49.426;11.182;2023-03-01T06:13:07;-2.80;99.90
11538;DHT22;50159;49.426;11.182;2023-03-01T06:15:33;-2.80;99.90
11538;DHT22;50159;49.426;11.182;2023-03-01T06:18:00;-2.70;99.90
11538;DHT22;50159;49.426;11.182;2023-03-01T06:20:28;-2.70;99.90
11538;DHT22;50159;49.426;11.182;2023-03-01T06:22:56;-2.70;99.90
11538;DHT22;50159;49.426;11.182;2023-03-01T06:25:24;-2.60;99.90
11538;DHT22;50159;49.426;11.182;2023-03-01T06:27:52;-2.60;99.90
11538;DHT22;50159;49.426;11.182;2023-03-01T06:30:21;-2.60;99.90
11538;DHT22;50159;49.426;11.182;2023-03-01T06:32:51;-2.50;99.90
11538;DHT22;50159;49.426;11.182;2023-03-01T06:35:19;-2.40;99.90
11538;DHT22;50159;49.426;11.182;2023-03-01T06:37:47;-2.30;99.90
11538;DHT22;50159;49.426;11.182;2023-03-01T06:40:15;-2.30;99.90
11538;DHT22;50159;49.426;11.182;2023-03-01T06:42:46;-2.20;99.90
11538;DHT22;50159;49.426;11.182;2023-03-01T06:45:18;-2.10;99.90
11538;DHT22;50159;49.426;11.182;2023-03-01T06:47:46;-2.00;99.90
11538;DHT22;50159;49.426;11.182;2023-03-01T06:50:15;-1.90;99.90
11538;DHT22;50159;49.426;11.182;2023-03-01T06:52:43;-1.90;99.90
11538;DHT22;50159;49.426;11.182;2023-03-01T06:55:12;-1.80;99.90
11538;DHT22;50159;49.426;11.182;2023-03-01T06:57:39;-1.70;99.90
11538;DHT22;50159;49.426;11.182;2023-03-01T07:00:07;-1.60;99.90
11538;DHT22;50159;49.426;11.182;2023-03-01T07:02:34;-1.50;99.90
11538;DHT22;50159;49.426;11.182;2023-03-01T07:05:01;-1.40;99.90
11538;DHT22;50159;49.426;11.182;2023-03-01T07:07:28;-1.30;99.90
11538;DHT22;50159;49.426;11.182;2023-03-01T07:09:55;-1.10;99.70
11538;DHT22;50159;49.426;11.182;2023-03-01T07:12:22;-1.00;99.50
11538;DHT22;50159;49.426;11.182;2023-03-01T07:14:49;-0.90;99.10
11538;DHT22;50159;49.426;11.182;2023-03-01T07:17:16;-0.80;98.60
11538;DHT22;50159;49.426;11.182;2023-03-01T07:19:43;-0.60;98.30
11538;DHT22;50159;49.426;11.182;2023-03-01T07:22:11;-0.50;98.10
11538;DHT22;50159;49.426;11.182;2023-03-01T07:24:38;-0.30;97.70
11538;DHT22;50159;49.426;11.182;2023-03-01T07:27:04;-0.20;96.80
11538;DHT22;50159;49.426;11.182;2023-03-01T07:29:31;0.00;96.40
11538;DHT22;50159;49.426;11.182;2023-03-01T07:31:58;0.10;95.80
11538;DHT22;50159;49.426;11.182;2023-03-01T07:34:25;0.20;95.30
11538;DHT22;50159;49.426;11.182;2023-03-01T07:36:52;0.40;94.80
11538;DHT22;50159;49.426;11.182;2023-03-01T07:39:19;0.50;94.30
11538;DHT22;50159;49.426;11.182;2023-03-01T07:41:46;0.70;93.60
11538;DHT22;50159;49.426;11.182;2023-03-01T07:44:12;0.90;93.20
11538;DHT22;50159;49.426;11.182;2023-03-01T07:46:39;1.00;92.20
11538;DHT22;50159;49.426;11.182;2023-03-01T07:49:06;1.20;91.50
11538;DHT22;50159;49.426;11.182;2023-03-01T07:51:33;1.30;90.50
11538;DHT22;50159;49.426;11.182;2023-03-01T07:54:00;1.50;90.30
11538;DHT22;50159;49.426;11.182;2023-03-01T07:56:26;1.60;89.50
11538;DHT22;50159;49.426;11.182;2023-03-01T07:58:53;1.90;87.60
11538;DHT22;50159;49.426;11.182;2023-03-01T08:01:21;2.10;85.70
11538;DHT22;50159;49.426;11.182;2023-03-01T08:03:48;2.50;85.30
11538;DHT22;50159;49.426;11.182;2023-03-01T08:06:16;3.10;82.20
11538;DHT22;50159;49.426;11.182;2023-03-01T08:08:44;3.40;77.40
11538;DHT22;50159;49.426;11.182;2023-03-01T08:11:13;3.60;74.20
11538;DHT22;50159;49.426;11.182;2023-03-01T08:13:42;3.60;72.10
11538;DHT22;50159;49.426;11.182;2023-03-01T08:16:14;3.60;69.80
11538;DHT22;50159;49.426;11.182;2023-03-01T08:18:42;3.50;69.50
11538;DHT22;50159;49.426;11.182;2023-03-01T08:21:12;3.40;69.30
11538;DHT22;50159;49.426;11.182;2023-03-01T08:23:41;3.50;69.90
11538;DHT22;50159;49.426;11.182;2023-03-01T08:26:15;3.50;65.50
11538;DHT22;50159;49.426;11.182;2023-03-01T08:28:45;3.40;65.90
11538;DHT22;50159;49.426;11.182;2023-03-01T08:31:41;3.50;66.70
11538;DHT22;50159;49.426;11.182;2023-03-01T08:34:14;3.70;65.60
11538;DHT22;50159;49.426;11.182;2023-03-01T08:36:45;3.80;65.20
11538;DHT22;50159;49.426;11.182;2023-03-01T08:39:15;3.90;64.80
11538;DHT22;50159;49.426;11.182;2023-03-01T08:41:43;4.00;64.60
11538;DHT22;50159;49.426;11.182;2023-03-01T08:44:14;4.20;62.60
11538;DHT22;50159;49.426;11.182;2023-03-01T08:46:44;4.20;61.60
11538;DHT22;50159;49.426;11.182;2023-03-01T08:49:16;4.30;60.40
11538;DHT22;50159;49.426;11.182;2023-03-01T08:51:45;4.50;60.80
11538;DHT22;50159;49.426;11.182;2023-03-01T08:54:15;4.60;60.40
11538;DHT22;50159;49.426;11.182;2023-03-01T08:56:44;4.80;59.30
11538;DHT22;50159;49.426;11.182;2023-03-01T08:59:13;4.90;58.40
11538;DHT22;50159;49.426;11.182;2023-03-01T09:01:41;5.00;58.60
11538;DHT22;50159;49.426;11.182;2023-03-01T09:04:14;5.20;58.40
11538;DHT22;50159;49.426;11.182;2023-03-01T09:06:42;5.30;56.60
11538;DHT22;50159;49.426;11.182;2023-03-01T09:09:16;5.40;57.30
11538;DHT22;50159;49.426;11.182;2023-03-01T09:11:44;5.60;56.70
11538;DHT22;50159;49.426;11.182;2023-03-01T09:14:13;5.70;54.90
11538;DHT22;50159;49.426;11.182;2023-03-01T09:16:43;5.80;54.00
11538;DHT22;50159;49.426;11.182;2023-03-01T09:19:10;5.80;52.80
11538;DHT22;50159;49.426;11.182;2023-03-01T09:21:37;5.80;52.30
11538;DHT22;50159;49.426;11.182;2023-03-01T09:24:14;5.80;52.80
11538;DHT22;50159;49.426;11.182;2023-03-01T09:26:41;5.90;52.80
11538;DHT22;50159;49.426;11.182;2023-03-01T09:29:08;6.10;52.10
11538;DHT22;50159;49.426;11.182;2023-03-01T09:31:36;6.20;52.10
11538;DHT22;50159;49.426;11.182;2023-03-01T09:34:03;6.30;51.90
11538;DHT22;50159;49.426;11.182;2023-03-01T09:36:30;6.50;51.40
11538;DHT22;50159;49.426;11.182;2023-03-01T09:38:58;6.70;51.70
11538;DHT22;50159;49.426;11.182;2023-03-01T09:47:05;7.10;50.40
11538;DHT22;50159;49.426;11.182;2023-03-01T09:49:41;7.10;48.30
11538;DHT22;50159;49.426;11.182;2023-03-01T09:55:23;7.00;48.90
11538;DHT22;50159;49.426;11.182;2023-03-01T09:57:56;7.20;48.20
11538;DHT22;50159;49.426;11.182;2023-03-01T10:00:47;7.30;47.60
11538;DHT22;50159;49.426;11.182;2023-03-01T10:03:43;7.40;48.50
11538;DHT22;50159;49.426;11.182;2023-03-01T10:06:26;7.60;48.00
11538;DHT22;50159;49.426;11.182;2023-03-01T10:09:09;7.70;46.40
11538;DHT22;50159;49.426;11.182;2023-03-01T10:11:43;7.70;45.90
11538;DHT22;50159;49.426;11.182;2023-03-01T10:17:00;8.00;45.50
11538;DHT22;50159;49.426;11.182;2023-03-01T10:19:32;8.20;45.10
11538;DHT22;50159;49.426;11.182;2023-03-01T10:22:10;8.20;45.60
11538;DHT22;50159;49.426;11.182;2023-03-01T10:24:41;8.40;45.00
11538;DHT22;50159;49.426;11.182;2023-03-01T10:27:32;8.60;44.60
11538;DHT22;50159;49.426;11.182;2023-03-01T10:32:57;8.60;43.00
11538;DHT22;50159;49.426;11.182;2023-03-01T10:35:27;8.60;43.70
11538;DHT22;50159;49.426;11.182;2023-03-01T10:38:03;8.70;43.40
11538;DHT22;50159;49.426;11.182;2023-03-01T10:40:34;8.80;42.60
11538;DHT22;50159;49.426;11.182;2023-03-01T10:43:15;8.80;42.30
11538;DHT22;50159;49.426;11.182;2023-03-01T10:45:42;8.80;42.20
11538;DHT22;50159;49.426;11.182;2023-03-01T10:48:20;9.00;43.60
11538;DHT22;50159;49.426;11.182;2023-03-01T10:51:12;9.00;42.80
11538;DHT22;50159;49.426;11.182;2023-03-01T10:53:49;9.20;44.00
11538;DHT22;50159;49.426;11.182;2023-03-01T10:56:18;9.40;43.30
11538;DHT22;50159;49.426;11.182;2023-03-01T10:59:04;9.40;42.20
11538;DHT22;50159;49.426;11.182;2023-03-01T11:01:36;9.40;41.80
11538;DHT22;50159;49.426;11.182;2023-03-01T11:06:33;9.80;42.50
11538;DHT22;50159;49.426;11.182;2023-03-01T11:09:20;10.10;41.60
11538;DHT22;50159;49.426;11.182;2023-03-01T11:11:53;10.20;40.50
11538;DHT22;50159;49.426;11.182;2023-03-01T11:14:24;10.20;39.80
11538;DHT22;50159;49.426;11.182;2023-03-01T11:17:04;10.30;39.90
11538;DHT22;50159;49.426;11.182;2023-03-01T11:22:58;10.40;39.70
11538;DHT22;50159;49.426;11.182;2023-03-01T11:25:34;10.70;39.80
11538;DHT22;50159;49.426;11.182;2023-03-01T11:28:06;10.90;39.30
11538;DHT22;50159;49.426;11.182;2023-03-01T11:31:02;10.80;38.20
11538;DHT22;50159;49.426;11.182;2023-03-01T11:33:50;10.90;39.30
11538;DHT22;50159;49.426;11.182;2023-03-01T11:36:44;11.10;38.90
11538;DHT22;50159;49.426;11.182;2023-03-01T11:39:38;11.10;37.60
11538;DHT22;50159;49.426;11.182;2023-03-01T11:42:17;11.30;39.20
11538;DHT22;50159;49.426;11.182;2023-03-01T11:44:50;11.40;37.40
11538;DHT22;50159;49.426;11.182;2023-03-01T11:47:37;11.40;37.80
11538;DHT22;50159;49.426;11.182;2023-03-01T11:50:30;11.60;38.00
11538;DHT22;50159;49.426;11.182;2023-03-01T11:56:28;11.50;36.60
11538;DHT22;50159;49.426;11.182;2023-03-01T12:16:28;11.50;37.70
11538;DHT22;50159;49.426;11.182;2023-03-01T12:19:14;11.60;37.70
11538;DHT22;50159;49.426;11.182;2023-03-01T12:30:39;11.50;38.10
11538;DHT22;50159;49.426;11.182;2023-03-01T12:36:54;11.70;37.90
11538;DHT22;50159;49.426;11.182;2023-03-01T12:46:01;11.90;37.50
11538;DHT22;50159;49.426;11.182;2023-03-01T12:49:08;12.00;38.00
11538;DHT22;50159;49.426;11.182;2023-03-01T12:51:40;12.20;38.70
11538;DHT22;50159;49.426;11.182;2023-03-01T12:54:19;12.50;38.50
11538;DHT22;50159;49.426;11.182;2023-03-01T12:56:56;12.60;37.50
11538;DHT22;50159;49.426;11.182;2023-03-01T12:59:37;12.50;37.50
11538;DHT22;50159;49.426;11.182;2023-03-01T13:07:32;12.30;38.30
11538;DHT22;50159;49.426;11.182;2023-03-01T13:10:26;12.40;37.70
11538;DHT22;50159;49.426;11.182;2023-03-01T13:13:23;12.50;38.90
11538;DHT22;50159;49.426;11.182;2023-03-01T13:15:51;12.60;38.10
11538;DHT22;50159;49.426;11.182;2023-03-01T13:20:51;12.30;38.20
11538;DHT22;50159;49.426;11.182;2023-03-01T13:34:01;12.80;37.50
11538;DHT22;50159;49.426;11.182;2023-03-01T13:41:55;12.80;38.20
11538;DHT22;50159;49.426;11.182;2023-03-01T13:49:46;13.40;38.20
11538;DHT22;50159;49.426;11.182;2023-03-01T13:55:19;13.30;37.60
11538;DHT22;50159;49.426;11.182;2023-03-01T13:58:00;13.00;37.80
11538;DHT22;50159;49.426;11.182;2023-03-01T14:00:39;13.00;38.60
11538;DHT22;50159;49.426;11.182;2023-03-01T14:03:11;13.20;38.20
11538;DHT22;50159;49.426;11.182;2023-03-01T14:05:42;13.20;38.00
11538;DHT22;50159;49.426;11.182;2023-03-01T14:08:40;13.50;38.30
11538;DHT22;50159;49.426;11.182;2023-03-01T14:17:41;17.30;34.60
11538;DHT22;50159;49.426;11.182;2023-03-01T14:20:22;19.50;29.60
11538;DHT22;50159;49.426;11.182;2023-03-01T14:22:54;21.10;28.90
11538;DHT22;50159;49.426;11.182;2023-03-01T14:25:34;22.90;28.00
11538;DHT22;50159;49.426;11.182;2023-03-01T14:30:57;25.20;23.40
11538;DHT22;50159;49.426;11.182;2023-03-01T14:33:34;25.20;24.00
11538;DHT22;50159;49.426;11.182;2023-03-01T14:36:12;25.40;23.80
11538;DHT22;50159;49.426;11.182;2023-03-01T14:38:45;25.70;22.30
11538;DHT22;50159;49.426;11.182;2023-03-01T14:41:24;24.90;23.30
11538;DHT22;50159;49.426;11.182;2023-03-01T14:44:11;24.40;23.20
11538;DHT22;50159;49.426;11.182;2023-03-01T14:46:43;24.40;23.70
11538;DHT22;50159;49.426;11.182;2023-03-01T14:49:19;24.80;23.10
11538;DHT22;50159;49.426;11.182;2023-03-01T14:51:59;24.80;23.20
11538;DHT22;50159;49.426;11.182;2023-03-01T14:54:39;24.40;22.10
11538;DHT22;50159;49.426;11.182;2023-03-01T14:57:18;24.40;23.50
11538;DHT22;50159;49.426;11.182;2023-03-01T14:59:49;24.90;23.60
11538;DHT22;50159;49.426;11.182;2023-03-01T15:02:24;25.30;23.10
11538;DHT22;50159;49.426;11.182;2023-03-01T15:04:55;25.40;22.40
11538;DHT22;50159;49.426;11.182;2023-03-01T15:07:31;24.80;22.40
11538;DHT22;50159;49.426;11.182;2023-03-01T15:10:02;23.60;23.00
11538;DHT22;50159;49.426;11.182;2023-03-01T15:14:58;21.50;24.90
11538;DHT22;50159;49.426;11.182;2023-03-01T15:17:35;21.10;25.30
11538;DHT22;50159;49.426;11.182;2023-03-01T15:20:05;20.50;25.90
11538;DHT22;50159;49.426;11.182;2023-03-01T15:22:43;20.00;26.40
11538;DHT22;50159;49.426;11.182;2023-03-01T15:25:17;19.10;26.70
11538;DHT22;50159;49.426;11.182;2023-03-01T15:27:47;17.40;28.10
11538;DHT22;50159;49.426;11.182;2023-03-01T15:30:21;15.70;29.90
11538;DHT22;50159;49.426;11.182;2023-03-01T15:35:51;13.00;34.80
11538;DHT22;50159;49.426;11.182;2023-03-01T15:41:27;11.50;38.10
11538;DHT22;50159;49.426;11.182;2023-03-01T15:44:14;11.20;39.50
11538;DHT22;50159;49.426;11.182;2023-03-01T15:46:46;11.10;39.90
11538;DHT22;50159;49.426;11.182;2023-03-01T15:52:28;11.40;40.10
11538;DHT22;50159;49.426;11.182;2023-03-01T16:00:33;11.80;39.20
11538;DHT22;50159;49.426;11.182;2023-03-01T16:02:59;11.80;39.20
11538;DHT22;50159;49.426;11.182;2023-03-01T16:05:30;11.40;39.30
11538;DHT22;50159;49.426;11.182;2023-03-01T16:07:59;10.70;40.50
11538;DHT22;50159;49.426;11.182;2023-03-01T16:10:27;10.20;41.50
11538;DHT22;50159;49.426;11.182;2023-03-01T16:12:55;9.80;43.50
11538;DHT22;50159;49.426;11.182;2023-03-01T16:15:30;9.50;44.20
11538;DHT22;50159;49.426;11.182;2023-03-01T16:18:00;9.40;45.10
11538;DHT22;50159;49.426;11.182;2023-03-01T16:20:29;9.30;45.30
11538;DHT22;50159;49.426;11.182;2023-03-01T16:23:06;9.20;45.20
11538;DHT22;50159;49.426;11.182;2023-03-01T16:25:35;8.90;45.80
11538;DHT22;50159;49.426;11.182;2023-03-01T16:28:02;8.60;46.40
11538;DHT22;50159;49.426;11.182;2023-03-01T16:30:35;8.40;47.20
11538;DHT22;50159;49.426;11.182;2023-03-01T16:33:03;8.10;47.90
11538;DHT22;50159;49.426;11.182;2023-03-01T16:35:50;7.90;48.60
11538;DHT22;50159;49.426;11.182;2023-03-01T16:38:17;7.60;49.20
11538;DHT22;50159;49.426;11.182;2023-03-01T16:40:48;7.50;49.70
11538;DHT22;50159;49.426;11.182;2023-03-01T16:43:17;7.30;50.00
11538;DHT22;50159;49.426;11.182;2023-03-01T16:45:44;7.20;50.60
11538;DHT22;50159;49.426;11.182;2023-03-01T16:48:12;7.10;50.90
11538;DHT22;50159;49.426;11.182;2023-03-01T16:50:39;7.00;51.20
11538;DHT22;50159;49.426;11.182;2023-03-01T16:53:06;6.90;52.30
11538;DHT22;50159;49.426;11.182;2023-03-01T16:55:33;6.80;51.80
11538;DHT22;50159;49.426;11.182;2023-03-01T16:58:00;6.70;52.10
11538;DHT22;50159;49.426;11.182;2023-03-01T17:00:27;6.60;52.40
11538;DHT22;50159;49.426;11.182;2023-03-01T17:02:54;6.50;52.60
11538;DHT22;50159;49.426;11.182;2023-03-01T17:05:22;6.40;52.90
11538;DHT22;50159;49.426;11.182;2023-03-01T17:07:50;6.40;53.30
11538;DHT22;50159;49.426;11.182;2023-03-01T17:10:17;6.30;53.40
11538;DHT22;50159;49.426;11.182;2023-03-01T17:12:48;6.20;53.70
11538;DHT22;50159;49.426;11.182;2023-03-01T17:15:16;6.10;53.90
11538;DHT22;50159;49.426;11.182;2023-03-01T17:17:43;6.00;54.10
11538;DHT22;50159;49.426;11.182;2023-03-01T17:20:10;6.00;54.50
11538;DHT22;50159;49.426;11.182;2023-03-01T17:22:37;5.90;54.60
11538;DHT22;50159;49.426;11.182;2023-03-01T17:25:08;5.90;54.70
11538;DHT22;50159;49.426;11.182;2023-03-01T17:27:37;5.80;54.80
11538;DHT22;50159;49.426;11.182;2023-03-01T17:30:05;5.70;54.90
11538;DHT22;50159;49.426;11.182;2023-03-01T17:32:36;5.70;55.10
11538;DHT22;50159;49.426;11.182;2023-03-01T17:35:03;5.60;55.20
11538;DHT22;50159;49.426;11.182;2023-03-01T17:37:30;5.50;55.40
11538;DHT22;50159;49.426;11.182;2023-03-01T17:39:57;5.50;55.60
11538;DHT22;50159;49.426;11.182;2023-03-01T17:42:24;5.40;55.70
11538;DHT22;50159;49.426;11.182;2023-03-01T17:44:51;5.40;55.80
11538;DHT22;50159;49.426;11.182;2023-03-01T17:47:18;5.30;56.00
11538;DHT22;50159;49.426;11.182;2023-03-01T17:49:45;5.30;56.20
11538;DHT22;50159;49.426;11.182;2023-03-01T17:52:12;5.20;56.30
11538;DHT22;50159;49.426;11.182;2023-03-01T17:54:38;5.20;56.30
11538;DHT22;50159;49.426;11.182;2023-03-01T17:57:05;5.20;56.40